Time;durP1;ratioP1;P1;durP2;ratioP2;P2;SDS_P1;SDS_P2;PMS_P1;PMS_P2;Temp;Humidity;BMP_temperature;BMP_pressure;BME280_temperature;BME280_humidity;BME280_pressure;Samples;Min_cycle;Max_cycle;Signal;HPM_P1;HPM_P2
2022/05/28 00:02:20;;;;;;;15.32;2.13;;;11.80;99.90;;;;;;5030270;28;20091;-72
2022/05/28 00:04:46;;;;;;;9.55;2.40;;;11.80;99.90;;;;;;5029402;28;20042;-72
2022/05/28 00:07:12;;;;;;;8.05;1.85;;;11.80;99.90;;;;;;5027374;28;20048;-72
2022/05/28 00:09:37;;;;;;;10.07;2.00;;;11.90;99.90;;;;;;5029076;28;20404;-72
2022/05/28 00:12:03;;;;;;;11.27;1.83;;;11.90;99.90;;;;;;5024121;28;20048;-72
2022/05/28 00:14:29;;;;;;;11.38;2.45;;;11.90;99.90;;;;;;5027144;28;20403;-73
2022/05/28 00:16:56;;;;;;;11.38;2.00;;;11.90;99.90;;;;;;5030754;28;20041;-73
2022/05/28 00:19:21;;;;;;;9.55;2.15;;;11.90;99.90;;;;;;5021882;28;20113;-73
2022/05/28 00:21:47;;;;;;;14.98;2.55;;;12.00;99.90;;;;;;5031114;28;20124;-73
2022/05/28 00:24:12;;;;;;;14.65;2.33;;;11.90;99.90;;;;;;5031519;28;20037;-74
2022/05/28 00:26:41;;;;;;;10.15;1.85;;;11.90;99.90;;;;;;5018462;28;20038;-74
2022/05/28 00:29:07;;;;;;;5.13;1.50;;;11.80;99.90;;;;;;5029799;28;20476;-74
2022/05/28 00:31:33;;;;;;;8.68;1.50;;;11.70;99.90;;;;;;5027518;28;20462;-73
2022/05/28 00:33:58;;;;;;;7.22;1.70;;;11.60;99.90;;;;;;5029923;28;20037;-73
2022/05/28 00:36:24;;;;;;;8.50;1.65;;;11.50;99.90;;;;;;5031640;28;20120;-73
2022/05/28 00:38:50;;;;;;;6.28;1.50;;;11.50;99.90;;;;;;5027874;28;20038;-73
2022/05/28 00:41:15;;;;;;;6.68;1.50;;;11.40;99.90;;;;;;5031089;28;20103;-73
2022/05/28 00:43:43;;;;;;;8.23;1.63;;;11.40;99.90;;;;;;5030122;28;20100;-73
2022/05/28 00:46:37;;;;;;;8.18;1.20;;;11.30;99.90;;;;;;5030726;28;20099;-74
2022/05/28 00:49:09;;;;;;;11.32;2.08;;;11.30;99.90;;;;;;5039822;28;20053;-73
2022/05/28 00:51:43;;;;;;;9.43;1.65;;;11.30;99.90;;;;;;5028594;28;20045;-73
2022/05/28 00:54:10;;;;;;;6.78;1.70;;;11.20;99.90;;;;;;5026841;28;20087;-74
2022/05/28 00:56:37;;;;;;;7.10;1.35;;;11.20;99.90;;;;;;5024428;28;20033;-74
2022/05/28 00:59:03;;;;;;;11.10;1.50;;;11.20;99.90;;;;;;5030395;28;20068;-74
2022/05/28 01:01:31;;;;;;;11.50;1.40;;;11.20;99.90;;;;;;5028956;28;20046;-73
2022/05/28 01:04:15;;;;;;;8.32;1.27;;;11.20;99.90;;;;;;5025238;28;20072;-73
2022/05/28 01:06:57;;;;;;;14.00;1.80;;;11.10;99.90;;;;;;5030562;28;20033;-74
2022/05/28 01:09:46;;;;;;;10.13;1.73;;;11.00;99.90;;;;;;5025344;28;20092;-74
2022/05/28 01:12:17;;;;;;;5.00;1.30;;;10.90;99.90;;;;;;5025784;28;20488;-73
2022/05/28 01:14:51;;;;;;;8.98;1.67;;;10.90;99.90;;;;;;5027170;28;20087;-74
2022/05/28 01:17:27;;;;;;;13.02;1.77;;;10.80;99.90;;;;;;5027747;28;20042;-74
2022/05/28 01:20:03;;;;;;;10.90;1.80;;;10.80;99.90;;;;;;5022497;28;20034;-74
2022/05/28 01:22:58;;;;;;;10.95;1.63;;;10.70;99.90;;;;;;5030356;28;20137;-74
2022/05/28 01:25:37;;;;;;;8.15;1.40;;;10.70;99.90;;;;;;5031152;28;20045;-73
2022/05/28 01:28:08;;;;;;;8.45;1.58;;;10.60;99.90;;;;;;5030962;28;20034;-74
2022/05/28 01:30:34;;;;;;;12.65;1.95;;;10.60;99.90;;;;;;5029212;28;20129;-74
2022/05/28 01:33:01;;;;;;;13.70;1.90;;;10.50;99.90;;;;;;5029231;28;20041;-74
2022/05/28 01:35:30;;;;;;;5.90;1.30;;;10.50;99.90;;;;;;5021412;28;20049;-73
2022/05/28 01:37:57;;;;;;;9.52;1.83;;;10.50;99.90;;;;;;5030867;28;20037;-73
2022/05/28 01:40:24;;;;;;;7.57;1.50;;;10.40;99.90;;;;;;5029447;28;20039;-74
2022/05/28 01:42:53;;;;;;;9.20;1.60;;;10.40;99.90;;;;;;5028831;28;20041;-74
2022/05/28 01:45:22;;;;;;;12.25;1.83;;;10.40;99.90;;;;;;5026850;28;20042;-73
2022/05/28 01:47:50;;;;;;;10.10;1.85;;;10.40;99.90;;;;;;5020730;28;20095;-73
2022/05/28 01:50:19;;;;;;;8.88;2.00;;;10.30;99.90;;;;;;5028741;28;20434;-73
2022/05/28 01:52:45;;;;;;;6.72;1.55;;;10.30;99.90;;;;;;5026489;28;20128;-73
2022/05/28 01:55:14;;;;;;;9.73;1.63;;;10.30;99.90;;;;;;5019759;28;20080;-74
2022/05/28 01:57:39;;;;;;;10.55;1.83;;;10.20;99.90;;;;;;5022431;28;20041;-73
2022/05/28 02:00:06;;;;;;;8.02;1.77;;;10.20;99.90;;;;;;5014678;28;20029;-73
2022/05/28 02:02:32;;;;;;;9.75;1.98;;;10.10;99.90;;;;;;5027143;28;20048;-74
2022/05/28 02:04:58;;;;;;;9.13;1.65;;;10.10;99.90;;;;;;5028546;28;20034;-74
2022/05/28 02:07:23;;;;;;;7.55;1.92;;;10.00;99.90;;;;;;5025008;28;20044;-73
2022/05/28 02:09:58;;;;;;;8.57;1.85;;;10.00;99.90;;;;;;5022165;28;20042;-74
2022/05/28 02:12:30;;;;;;;8.05;1.50;;;10.00;99.90;;;;;;5027981;28;20037;-73
2022/05/28 02:15:08;;;;;;;;;;;10.00;99.90;;;;;;5028648;28;20176;-73
2022/05/28 02:17:52;;;;;;;7.70;1.80;;;10.00;99.90;;;;;;5043774;28;20362;-73
2022/05/28 02:20:32;;;;;;;7.32;1.60;;;10.00;99.90;;;;;;5023914;28;20049;-74
2022/05/28 02:23:07;;;;;;;11.30;1.95;;;10.00;99.90;;;;;;5013064;28;20044;-73
2022/05/28 02:25:52;;;;;;;10.20;1.98;;;10.00;99.90;;;;;;5025206;28;20049;-74
2022/05/28 02:28:22;;;;;;;8.32;1.75;;;9.90;99.90;;;;;;5029077;28;20051;-73
2022/05/28 02:30:52;;;;;;;11.25;1.60;;;9.90;99.90;;;;;;5027578;28;20077;-73
2022/05/28 02:33:19;;;;;;;11.85;2.40;;;9.90;99.90;;;;;;5032507;28;20055;-74
2022/05/28 02:35:45;;;;;;;14.48;2.25;;;9.90;99.90;;;;;;5026385;28;20037;-73
2022/05/28 02:38:12;;;;;;;14.82;2.28;;;9.80;99.90;;;;;;5033698;28;20044;-74
2022/05/28 02:40:38;;;;;;;6.55;1.58;;;9.80;99.90;;;;;;5024885;28;20034;-74
2022/05/28 02:43:04;;;;;;;9.10;2.03;;;9.80;99.90;;;;;;5030866;28;20118;-73
2022/05/28 02:45:29;;;;;;;12.63;2.22;;;9.70;99.90;;;;;;5033715;28;20099;-73
2022/05/28 02:47:56;;;;;;;10.27;1.80;;;9.70;99.90;;;;;;5033506;28;20037;-73
2022/05/28 02:50:24;;;;;;;9.20;2.08;;;9.70;99.90;;;;;;5027160;28;20041;-73
2022/05/28 02:52:49;;;;;;;15.82;2.30;;;9.70;99.90;;;;;;5033549;28;20044;-73
2022/05/28 02:55:15;;;;;;;10.40;1.75;;;9.60;99.90;;;;;;5031239;28;20033;-73
2022/05/28 02:57:41;;;;;;;14.68;2.10;;;9.60;99.90;;;;;;5027429;28;20041;-73
2022/05/28 03:00:07;;;;;;;10.57;1.92;;;9.60;99.90;;;;;;5023693;28;20095;-73
2022/05/28 03:02:33;;;;;;;11.27;1.95;;;9.60;99.90;;;;;;5033423;28;21369;-73
2022/05/28 03:04:59;;;;;;;12.23;1.95;;;9.50;99.90;;;;;;5032120;28;20148;-73
2022/05/28 03:07:24;;;;;;;10.05;1.60;;;9.50;99.90;;;;;;5033289;28;20053;-73
2022/05/28 03:09:50;;;;;;;8.32;1.90;;;9.50;99.90;;;;;;5025087;28;20041;-73
2022/05/28 03:12:16;;;;;;;12.18;2.17;;;9.50;99.90;;;;;;5031444;28;20087;-74
2022/05/28 03:14:42;;;;;;;10.50;2.35;;;9.40;99.90;;;;;;5028078;28;20117;-73
2022/05/28 03:17:08;;;;;;;13.65;2.28;;;9.40;99.90;;;;;;5032618;28;20116;-73
2022/05/28 03:19:33;;;;;;;12.13;2.15;;;9.40;99.90;;;;;;5024242;28;20083;-73
2022/05/28 03:21:59;;;;;;;11.07;2.25;;;9.40;99.90;;;;;;5027170;28;20041;-74
2022/05/28 03:24:25;;;;;;;14.48;2.28;;;9.40;99.90;;;;;;5031261;28;20041;-73
2022/05/28 03:26:52;;;;;;;11.52;1.80;;;9.30;99.90;;;;;;5032233;28;20025;-73
2022/05/28 03:29:18;;;;;;;15.85;2.00;;;9.30;99.90;;;;;;5022693;28;20060;-73
2022/05/28 03:31:44;;;;;;;9.93;1.80;;;9.30;99.90;;;;;;5024479;28;20045;-74
2022/05/28 03:34:09;;;;;;;11.93;1.90;;;9.30;99.90;;;;;;5028472;28;20057;-73
2022/05/28 03:36:35;;;;;;;10.10;2.10;;;9.30;99.90;;;;;;5031303;28;20072;-73
2022/05/28 03:39:02;;;;;;;12.65;2.40;;;9.20;99.90;;;;;;5030659;28;20033;-73
2022/05/28 03:41:28;;;;;;;8.65;1.75;;;9.20;99.90;;;;;;5022661;28;20520;-74
2022/05/28 03:43:54;;;;;;;9.93;1.80;;;9.30;99.90;;;;;;5028961;28;20494;-73
2022/05/28 03:46:32;;;;;;;12.32;2.17;;;9.30;99.90;;;;;;5029042;28;20527;-74
2022/05/28 03:49:01;;;;;;;11.60;1.88;;;9.30;99.90;;;;;;5028220;28;20489;-73
2022/05/28 03:51:27;;;;;;;11.43;2.25;;;9.30;99.90;;;;;;5025312;28;20395;-73
2022/05/28 03:53:53;;;;;;;10.20;2.15;;;9.20;99.90;;;;;;5030298;28;20033;-73
2022/05/28 03:56:20;;;;;;;12.13;2.83;;;9.20;99.90;;;;;;5032178;28;20034;-73
2022/05/28 03:58:47;;;;;;;13.75;2.13;;;9.20;99.90;;;;;;5031291;28;20067;-73
2022/05/28 04:01:14;;;;;;;14.20;1.92;;;9.20;99.90;;;;;;5047225;28;20048;-73
2022/05/28 04:03:39;;;;;;;12.32;2.00;;;9.20;99.90;;;;;;5038627;28;20151;-73
2022/05/28 04:06:05;;;;;;;14.48;2.00;;;9.10;99.90;;;;;;5029177;28;20081;-73
2022/05/28 04:08:31;;;;;;;10.48;2.13;;;9.10;99.90;;;;;;5031121;28;20108;-73
2022/05/28 04:10:57;;;;;;;15.50;2.65;;;9.10;99.90;;;;;;5031101;28;20088;-73
2022/05/28 04:13:22;;;;;;;13.57;2.20;;;9.20;99.90;;;;;;5029490;28;20073;-73
2022/05/28 04:15:49;;;;;;;12.43;2.47;;;9.20;99.90;;;;;;5025981;28;20041;-74
2022/05/28 04:18:15;;;;;;;12.82;2.67;;;9.20;99.90;;;;;;5026462;28;20050;-74
2022/05/28 04:20:41;;;;;;;11.48;2.20;;;9.20;99.90;;;;;;5025072;28;20064;-74
2022/05/28 04:23:07;;;;;;;10.35;1.92;;;9.20;99.90;;;;;;5030030;28;20436;-73
2022/05/28 04:25:33;;;;;;;15.65;2.53;;;9.20;99.90;;;;;;5030438;28;20050;-74
2022/05/28 04:27:59;;;;;;;17.15;2.65;;;9.20;99.90;;;;;;5029100;28;20514;-73
2022/05/28 04:30:25;;;;;;;13.10;2.40;;;9.20;99.90;;;;;;5026679;28;20057;-73
2022/05/28 04:32:50;;;;;;;8.88;1.80;;;9.30;99.90;;;;;;5023571;28;20037;-73
2022/05/28 04:35:16;;;;;;;12.25;2.33;;;9.30;99.90;;;;;;5031444;28;20495;-73
2022/05/28 04:37:42;;;;;;;13.30;2.10;;;9.30;99.90;;;;;;5025281;28;20503;-73
2022/05/28 04:40:08;;;;;;;12.23;2.20;;;9.30;99.90;;;;;;5027334;28;20504;-73
2022/05/28 04:42:34;;;;;;;13.55;2.50;;;9.40;99.90;;;;;;5023228;28;20041;-73
2022/05/28 04:45:00;;;;;;;14.35;2.88;;;9.40;99.90;;;;;;5030189;28;20039;-73
2022/05/28 04:47:25;;;;;;;17.95;2.60;;;9.40;99.90;;;;;;5029992;28;20038;-74
2022/05/28 04:49:51;;;;;;;12.80;2.47;;;9.40;99.90;;;;;;5030028;28;20421;-73
2022/05/28 04:52:17;;;;;;;11.88;2.35;;;9.50;99.90;;;;;;5029626;28;20546;-73
2022/05/28 04:54:43;;;;;;;16.63;2.42;;;9.50;99.90;;;;;;5028613;28;20639;-73
2022/05/28 04:57:09;;;;;;;15.57;2.35;;;9.50;99.90;;;;;;5025194;28;20131;-73
2022/05/28 04:59:34;;;;;;;15.38;2.80;;;9.50;99.90;;;;;;5029735;28;20449;-73
2022/05/28 05:02:00;;;;;;;11.85;2.20;;;9.60;99.90;;;;;;5029059;28;20122;-74
2022/05/28 05:04:25;;;;;;;15.63;2.97;;;9.60;99.90;;;;;;5029830;28;20132;-73
2022/05/28 05:06:51;;;;;;;14.38;2.40;;;9.60;99.90;;;;;;5029537;28;20045;-74
2022/05/28 05:09:17;;;;;;;12.15;2.40;;;9.70;99.90;;;;;;5025185;28;20042;-74
2022/05/28 05:11:42;;;;;;;9.15;2.20;;;9.70;99.90;;;;;;5028891;28;20123;-73
2022/05/28 05:14:08;;;;;;;16.08;2.67;;;9.80;99.90;;;;;;5030202;28;20044;-73
2022/05/28 05:16:33;;;;;;;14.77;2.60;;;9.80;99.90;;;;;;5029824;28;20045;-74
2022/05/28 05:18:59;;;;;;;12.85;2.40;;;9.90;99.90;;;;;;5021648;28;20492;-74
2022/05/28 05:21:25;;;;;;;15.35;2.50;;;9.90;99.90;;;;;;5027475;28;20048;-74
2022/05/28 05:23:50;;;;;;;19.15;2.70;;;10.00;99.90;;;;;;5029317;28;20080;-73
2022/05/28 05:26:19;;;;;;;15.13;2.67;;;10.10;99.90;;;;;;5029098;28;20045;-74
2022/05/28 05:28:44;;;;;;;15.20;2.80;;;10.20;99.90;;;;;;5030064;28;20041;-74
2022/05/28 05:31:11;;;;;;;10.48;2.80;;;10.30;99.90;;;;;;5020769;28;20092;-74
2022/05/28 05:33:37;;;;;;;17.10;2.63;;;10.40;99.90;;;;;;5028892;28;20042;-74
2022/05/28 05:36:02;;;;;;;14.65;2.85;;;10.50;99.90;;;;;;5026006;28;20057;-73
2022/05/28 05:38:28;;;;;;;13.50;2.47;;;10.60;99.90;;;;;;5027075;28;20068;-73
2022/05/28 05:40:54;;;;;;;16.42;2.58;;;10.60;99.90;;;;;;5020063;28;20042;-74
2022/05/28 05:43:19;;;;;;;16.20;2.78;;;10.60;99.90;;;;;;5027048;28;20048;-74
2022/05/28 05:45:56;;;;;;;14.18;2.85;;;10.70;99.90;;;;;;5028579;28;20076;-73
2022/05/28 05:48:23;;;;;;;12.40;2.47;;;10.80;99.90;;;;;;5028963;28;20079;-74
2022/05/28 05:50:49;;;;;;;14.25;2.70;;;10.80;99.90;;;;;;5018277;28;20042;-73
2022/05/28 05:53:15;;;;;;;18.45;3.85;;;10.90;99.90;;;;;;5024375;28;20091;-73
2022/05/28 05:55:41;;;;;;;11.40;3.00;;;11.00;99.90;;;;;;5022175;28;20057;-74
2022/05/28 05:58:08;;;;;;;16.63;4.00;;;11.10;99.90;;;;;;5029612;28;20038;-73
2022/05/28 06:00:34;;;;;;;15.60;3.20;;;11.10;99.90;;;;;;5031721;28;20075;-73
2022/05/28 06:03:00;;;;;;;14.25;2.70;;;11.20;99.90;;;;;;5031196;28;20045;-73
2022/05/28 06:05:26;;;;;;;14.40;2.90;;;11.30;99.90;;;;;;5028008;28;20044;-73
2022/05/28 06:07:52;;;;;;;11.95;2.70;;;11.30;99.90;;;;;;5029877;28;20042;-73
2022/05/28 06:10:17;;;;;;;12.38;3.10;;;11.30;99.90;;;;;;5025064;28;20049;-73
2022/05/28 06:12:43;;;;;;;16.17;2.75;;;11.40;99.90;;;;;;5032518;28;20124;-73
2022/05/28 06:15:09;;;;;;;13.38;3.05;;;11.40;99.90;;;;;;5027578;28;20045;-73
2022/05/28 06:17:36;;;;;;;19.90;3.15;;;11.40;99.90;;;;;;5040552;28;20037;-73
2022/05/28 06:20:08;;;;;;;16.95;2.97;;;11.50;99.90;;;;;;5032942;28;20039;-73
2022/05/28 06:22:34;;;;;;;16.63;2.58;;;11.60;99.90;;;;;;5032122;28;20052;-73
2022/05/28 06:24:59;;;;;;;13.90;2.88;;;11.70;99.90;;;;;;5030816;28;20033;-73
2022/05/28 06:27:25;;;;;;;12.57;2.75;;;11.70;99.90;;;;;;5034575;28;20033;-73
2022/05/28 06:29:52;;;;;;;14.05;2.45;;;11.80;99.90;;;;;;5025422;28;20045;-73
2022/05/28 06:32:18;;;;;;;9.05;2.35;;;11.90;99.90;;;;;;5030220;28;20068;-73
2022/05/28 06:34:44;;;;;;;11.88;2.10;;;12.00;99.90;;;;;;5030978;28;20041;-73
2022/05/28 06:37:12;;;;;;;12.57;2.40;;;12.10;99.90;;;;;;5032269;28;20048;-73
2022/05/28 06:39:38;;;;;;;9.68;2.20;;;12.10;99.90;;;;;;5033339;28;20037;-73
2022/05/28 06:42:05;;;;;;;7.78;2.15;;;12.20;99.90;;;;;;5028110;28;20091;-73
2022/05/28 06:44:31;;;;;;;8.13;1.83;;;12.20;99.90;;;;;;5026278;28;20045;-73
2022/05/28 06:46:56;;;;;;;13.00;2.10;;;12.20;99.90;;;;;;5024558;28;20045;-73
2022/05/28 06:49:22;;;;;;;8.43;1.58;;;12.30;99.90;;;;;;5030121;28;20037;-72
2022/05/28 06:51:50;;;;;;;11.02;2.38;;;12.50;99.90;;;;;;5031679;28;20053;-73
2022/05/28 06:54:15;;;;;;;9.15;2.05;;;12.60;99.90;;;;;;5033076;28;20033;-73
2022/05/28 06:56:41;;;;;;;10.15;2.30;;;12.60;99.90;;;;;;5029507;28;20033;-73
2022/05/28 06:59:07;;;;;;;11.85;2.47;;;12.70;99.90;;;;;;5028392;28;20061;-73
2022/05/28 07:01:33;;;;;;;15.43;2.83;;;12.90;99.90;;;;;;5022980;28;20053;-71
2022/05/28 07:03:59;;;;;;;15.48;2.95;;;13.00;99.90;;;;;;4961005;28;20073;-72
2022/05/28 07:06:27;;;;;;;13.23;2.92;;;13.00;99.90;;;;;;5004119;28;20058;-72
2022/05/28 07:08:53;;;;;;;19.30;3.20;;;13.10;99.90;;;;;;5022987;28;20484;-72
2022/05/28 07:11:18;;;;;;;14.60;2.80;;;13.20;99.90;;;;;;5028644;28;20125;-72
2022/05/28 07:13:44;;;;;;;13.77;2.58;;;13.20;99.90;;;;;;5031554;28;20033;-70
2022/05/28 07:16:11;;;;;;;18.08;3.55;;;13.20;99.90;;;;;;5026753;28;20038;-71
2022/05/28 07:18:39;;;;;;;11.10;2.70;;;13.30;99.90;;;;;;5020782;28;20128;-70
2022/05/28 07:21:06;;;;;;;13.02;3.03;;;13.30;99.90;;;;;;5028504;28;20045;-72
2022/05/28 07:23:32;;;;;;;11.65;2.90;;;13.40;99.90;;;;;;5023613;28;20041;-73
2022/05/28 07:26:12;;;;;;;12.90;2.80;;;13.30;99.90;;;;;;5023796;28;20041;-72
2022/05/28 07:28:40;;;;;;;18.63;3.97;;;13.20;99.90;;;;;;5045708;28;20063;-72
2022/05/28 07:31:18;;;;;;;14.98;2.80;;;12.90;99.90;;;;;;5024192;28;20041;-71
2022/05/28 07:33:45;;;;;;;20.02;3.25;;;12.80;99.90;;;;;;5026559;28;20040;-71
2022/05/28 07:36:14;;;;;;;15.40;3.28;;;12.70;99.90;;;;;;5030828;28;20094;-72
2022/05/28 07:38:41;;;;;;;15.95;3.30;;;12.60;99.90;;;;;;5045777;28;20037;-72
2022/05/28 07:41:10;;;;;;;14.70;2.80;;;12.70;99.90;;;;;;5026237;28;20045;-71
2022/05/28 07:43:36;;;;;;;12.90;3.00;;;12.60;99.90;;;;;;5031882;28;20048;-72
2022/05/28 07:46:03;;;;;;;9.85;2.30;;;12.50;99.90;;;;;;5025893;28;20098;-72
2022/05/28 07:48:29;;;;;;;7.10;2.08;;;12.40;99.90;;;;;;5028266;28;22150;-71
2022/05/28 07:50:54;;;;;;;10.90;2.42;;;12.30;99.90;;;;;;5029129;28;20047;-71
2022/05/28 07:53:20;;;;;;;11.15;2.40;;;12.20;99.90;;;;;;5030882;28;20037;-71
2022/05/28 07:55:46;;;;;;;12.20;2.60;;;12.00;99.90;;;;;;5030124;28;20041;-71
2022/05/28 07:58:14;;;;;;;10.82;2.60;;;11.90;99.90;;;;;;5030906;28;20044;-71
2022/05/28 08:00:46;;;;;;;14.80;3.15;;;12.00;99.90;;;;;;5029812;28;20083;-72
2022/05/28 08:03:14;;;;;;;12.25;2.50;;;12.10;99.90;;;;;;5024009;28;20045;-72
2022/05/28 08:05:42;;;;;;;11.35;2.78;;;12.10;99.90;;;;;;5024025;28;20044;-72
2022/05/28 08:08:08;;;;;;;13.90;3.00;;;12.30;99.90;;;;;;5008272;28;20052;-71
2022/05/28 08:10:34;;;;;;;16.80;2.58;;;12.40;99.90;;;;;;5021663;28;20049;-72
2022/05/28 08:13:05;;;;;;;13.85;3.40;;;12.50;99.90;;;;;;5022634;28;20128;-71
2022/05/28 08:15:32;;;;;;;12.98;2.90;;;12.70;99.90;;;;;;5022923;28;20053;-69
2022/05/28 08:17:58;;;;;;;17.45;3.45;;;13.00;99.90;;;;;;5023798;28;20057;-71
2022/05/28 08:23:08;;;;;;;17.70;3.67;;;13.30;99.90;;;;;;5024611;28;20041;-71
2022/05/28 08:23:09;;;;;;;15.52;2.97;;;13.40;99.90;;;;;;5024594;28;20061;-71
2022/05/28 08:25:36;;;;;;;15.50;3.03;;;13.60;99.90;;;;;;5023002;28;20111;-71
2022/05/28 08:28:02;;;;;;;11.18;3.10;;;13.70;99.90;;;;;;5022422;28;20488;-71
2022/05/28 08:30:28;;;;;;;13.85;2.80;;;13.70;99.90;;;;;;5023020;28;20046;-71
2022/05/28 08:32:53;;;;;;;17.17;3.28;;;13.80;99.90;;;;;;5022005;28;20045;-71
2022/05/28 08:35:20;;;;;;;19.50;3.35;;;13.80;99.90;;;;;;5023706;28;20030;-72
2022/05/28 08:37:45;;;;;;;13.38;3.20;;;13.80;99.90;;;;;;5024053;28;20037;-72
2022/05/28 08:40:13;;;;;;;14.73;3.13;;;13.80;99.90;;;;;;5021726;28;20045;-72
2022/05/28 08:42:40;;;;;;;14.27;3.63;;;13.90;99.90;;;;;;5020763;28;20048;-72
2022/05/28 08:45:06;;;;;;;16.70;3.10;;;13.90;99.90;;;;;;5022635;28;20044;-73
2022/05/28 08:47:36;;;;;;;13.77;2.72;;;14.00;99.90;;;;;;5024727;28;20128;-73
2022/05/28 08:50:06;;;;;;;14.45;2.95;;;14.00;99.90;;;;;;5020739;28;20033;-73
2022/05/28 08:52:39;;;;;;;14.52;3.17;;;14.20;99.90;;;;;;5025025;28;20033;-72
2022/05/28 08:55:11;;;;;;;17.85;2.85;;;14.20;99.90;;;;;;5025954;28;20041;-73
2022/05/28 08:58:00;;;;;;;16.80;3.00;;;14.20;99.90;;;;;;5028906;28;20073;-73
2022/05/28 09:00:49;;;;;;;18.50;3.40;;;14.20;99.90;;;;;;5026845;28;20033;-73
2022/05/28 09:03:39;;;;;;;15.70;3.08;;;14.30;99.90;;;;;;5030242;28;20140;-72
2022/05/28 09:06:10;;;;;;;13.95;3.17;;;14.50;99.90;;;;;;5019821;28;20099;-72
2022/05/28 09:08:43;;;;;;;13.57;3.17;;;14.80;99.90;;;;;;5022730;28;20200;-72
2022/05/28 09:11:35;;;;;;;12.20;2.65;;;15.00;99.90;;;;;;5019975;28;20125;-72
2022/05/28 09:14:22;;;;;;;18.33;3.03;;;15.20;99.90;;;;;;5011565;28;20065;-72
2022/05/28 09:16:51;;;;;;;15.63;3.35;;;15.30;99.90;;;;;;5016947;28;20049;-72
2022/05/28 09:19:27;;;;;;;21.60;3.60;;;15.60;99.90;;;;;;5022949;28;20133;-71
2022/05/28 09:21:53;;;;;;;13.07;2.60;;;15.80;99.90;;;;;;5018061;28;20212;-71
2022/05/28 09:24:27;;;;;;;13.00;2.90;;;15.80;99.90;;;;;;5019281;28;20050;-73
2022/05/28 09:27:18;;;;;;;15.95;3.17;;;15.70;99.90;;;;;;5022434;28;20043;-72
2022/05/28 09:30:03;;;;;;;13.60;2.72;;;15.60;99.90;;;;;;5025747;28;20041;-72
2022/05/28 09:33:08;;;;;;;13.02;3.10;;;15.50;99.90;;;;;;5027262;28;20048;-72
2022/05/28 09:36:17;;;;;;;17.63;3.33;;;15.30;99.90;;;;;;5032781;28;20049;-72
2022/05/28 09:39:11;;;;;;;13.93;3.30;;;15.00;99.90;;;;;;5037913;28;20045;-72
2022/05/28 09:41:49;;;;;;;17.73;3.42;;;15.20;99.90;;;;;;5033699;28;20095;-72
2022/05/28 09:44:33;;;;;;;16.58;2.97;;;15.60;99.90;;;;;;5033587;28;20044;-72
2022/05/28 09:47:14;;;;;;;11.77;2.60;;;15.90;99.90;;;;;;5033397;28;20052;-72
2022/05/28 09:49:51;;;;;;;14.02;2.63;;;16.40;99.00;;;;;;5032400;28;20072;-72
2022/05/28 09:52:24;;;;;;;13.00;2.78;;;16.50;99.60;;;;;;5028120;28;20064;-72
2022/05/28 09:54:50;;;;;;;12.40;2.53;;;16.40;98.30;;;;;;5029693;28;20034;-72
2022/05/28 09:57:29;;;;;;;10.38;2.42;;;16.30;99.80;;;;;;5034346;28;20034;-72
2022/05/28 10:00:00;;;;;;;16.05;2.95;;;16.30;99.90;;;;;;5033156;28;20053;-72
2022/05/28 10:02:43;;;;;;;11.68;2.75;;;16.30;99.90;;;;;;5031379;28;20041;-72
2022/05/28 10:05:16;;;;;;;14.88;2.63;;;16.50;99.90;;;;;;5032321;28;20038;-72
2022/05/28 10:07:43;;;;;;;;;;;16.70;99.30;;;;;;5033137;28;20044;-72
2022/05/28 10:10:20;;;;;;;11.65;2.70;;;16.80;99.80;;;;;;5034321;28;19928;-72
2022/05/28 10:12:46;;;;;;;11.65;2.60;;;16.80;98.00;;;;;;5025623;28;20128;-72
2022/05/28 10:15:23;;;;;;;19.65;2.72;;;16.70;96.20;;;;;;5034523;28;20460;-72
2022/05/28 10:18:03;;;;;;;12.05;2.50;;;16.50;99.00;;;;;;5032059;28;20038;-72
2022/05/28 10:20:29;;;;;;;13.40;2.65;;;16.30;99.80;;;;;;5032738;28;20076;-72
2022/05/28 10:22:58;;;;;;;12.32;2.35;;;16.20;98.30;;;;;;5032892;28;20045;-72
2022/05/28 10:25:37;;;;;;;11.23;2.50;;;16.20;97.10;;;;;;5032797;28;20081;-72
2022/05/28 10:28:03;;;;;;;8.63;2.33;;;16.10;95.40;;;;;;5032483;28;20128;-71
2022/05/28 10:30:41;;;;;;;14.25;2.63;;;16.30;94.80;;;;;;5030028;28;20571;-71
2022/05/28 10:33:16;;;;;;;10.45;2.42;;;16.70;97.70;;;;;;5029819;28;20040;-72
2022/05/28 10:35:42;;;;;;;12.77;2.50;;;17.10;95.80;;;;;;5032644;28;20052;-72
2022/05/28 10:38:11;;;;;;;14.50;3.22;;;17.30;95.40;;;;;;5034005;28;20065;-72
2022/05/28 10:40:54;;;;;;;14.45;2.95;;;17.20;96.80;;;;;;5033448;28;20492;-72
2022/05/28 10:43:30;;;;;;;13.55;2.80;;;17.20;98.70;;;;;;5032532;28;20124;-72
2022/05/28 10:46:25;;;;;;;16.92;2.80;;;17.10;99.90;;;;;;5031726;28;20052;-72
2022/05/28 10:49:22;;;;;;;8.07;2.45;;;17.20;94.80;;;;;;5016415;28;20038;-72
2022/05/28 10:51:51;;;;;;;11.38;2.63;;;17.10;90.40;;;;;;5031024;28;20083;-72
2022/05/28 10:54:45;;;;;;;12.40;2.55;;;17.10;89.50;;;;;;5030017;28;20127;-72
2022/05/28 10:57:43;;;;;;;9.13;2.55;;;17.10;93.90;;;;;;5029191;28;20060;-72
2022/05/28 11:00:50;;;;;;;13.77;2.88;;;17.10;96.50;;;;;;5023319;28;20148;-72
2022/05/28 11:03:30;;;;;;;12.93;3.00;;;17.20;94.20;;;;;;5001410;28;20045;-71
2022/05/28 11:06:20;;;;;;;12.55;2.78;;;16.90;93.50;;;;;;5025622;28;20083;-71
2022/05/28 11:08:55;;;;;;;19.10;3.85;;;16.60;96.80;;;;;;5031922;28;20103;-72
2022/05/28 11:11:45;;;;;;;11.23;2.65;;;16.40;99.90;;;;;;5031747;28;20042;-71
2022/05/28 11:14:47;;;;;;;11.73;2.97;;;16.20;99.60;;;;;;5033264;28;20380;-71
2022/05/28 11:17:46;;;;;;;14.73;2.92;;;16.10;99.90;;;;;;5031897;28;20026;-70
2022/05/28 11:20:24;;;;;;;15.73;2.90;;;16.10;99.90;;;;;;4995560;28;20053;-71
2022/05/28 11:23:01;;;;;;;10.63;2.58;;;16.30;99.90;;;;;;5030460;28;20072;-72
2022/05/28 11:25:48;;;;;;;16.40;3.20;;;16.50;99.90;;;;;;5015878;28;20463;-72
2022/05/28 11:28:50;;;;;;;14.93;3.08;;;16.60;99.90;;;;;;5030388;28;20499;-70
2022/05/28 11:31:22;;;;;;;16.38;2.92;;;16.50;98.30;;;;;;5031132;28;20048;-71
2022/05/28 11:33:50;;;;;;;14.00;3.25;;;16.30;98.70;;;;;;5031749;28;20468;-72
2022/05/28 11:36:36;;;;;;;11.07;2.58;;;15.90;99.90;;;;;;5032748;28;20480;-72
2022/05/28 11:39:29;;;;;;;14.98;2.90;;;15.50;99.90;;;;;;5027836;28;20503;-72
2022/05/28 11:42:06;;;;;;;12.20;2.90;;;15.40;99.90;;;;;;5030521;28;20041;-71
2022/05/28 11:44:39;;;;;;;13.13;2.63;;;15.30;99.90;;;;;;5029051;28;20491;-72
2022/05/28 11:47:30;;;;;;;16.52;2.92;;;15.20;99.90;;;;;;5026724;28;20557;-71
2022/05/28 11:53:36;;;;;;;11.15;2.10;;;15.20;99.90;;;;;;5025104;28;20488;-72
2022/05/28 11:56:15;;;;;;;12.82;2.72;;;15.20;99.90;;;;;;5022829;28;20610;-72
2022/05/28 11:59:19;;;;;;;10.93;2.38;;;15.40;99.90;;;;;;5029782;28;20049;-71
2022/05/28 12:01:55;;;;;;;9.20;2.38;;;15.60;99.90;;;;;;5027765;28;20080;-72
2022/05/28 12:04:21;;;;;;;11.10;2.70;;;15.90;99.90;;;;;;5029817;28;20041;-71
2022/05/28 12:07:08;;;;;;;13.80;2.55;;;16.00;99.90;;;;;;5029148;28;20076;-72
2022/05/28 12:09:40;;;;;;;12.23;2.65;;;16.10;99.90;;;;;;5028718;28;20169;-71
2022/05/28 12:12:17;;;;;;;11.45;2.83;;;16.20;99.90;;;;;;5023657;28;20079;-71
2022/05/28 12:14:47;;;;;;;16.63;2.90;;;16.50;99.90;;;;;;5024533;28;20419;-71
2022/05/28 12:17:19;;;;;;;15.63;2.50;;;16.60;99.90;;;;;;5031996;28;20037;-71
2022/05/28 12:19:46;;;;;;;12.57;2.47;;;16.60;99.90;;;;;;5030750;28;20365;-71
2022/05/28 12:22:25;;;;;;;13.77;2.53;;;16.50;99.70;;;;;;5031934;28;20099;-72
2022/05/28 12:25:13;;;;;;;14.48;3.28;;;16.20;99.90;;;;;;5027277;28;20053;-71
2022/05/28 12:27:53;;;;;;;14.52;2.67;;;16.00;99.90;;;;;;5030122;28;20048;-71
2022/05/28 12:30:30;;;;;;;10.23;2.50;;;15.80;99.90;;;;;;5028197;28;20124;-71
2022/05/28 12:32:57;;;;;;;19.33;3.10;;;15.60;99.90;;;;;;5030706;28;20045;-71
2022/05/28 12:35:34;;;;;;;12.75;2.55;;;15.50;99.90;;;;;;5014535;28;20045;-71
2022/05/28 12:38:09;;;;;;;13.48;2.80;;;15.50;99.90;;;;;;5023986;28;20133;-72
2022/05/28 12:40:56;;;;;;;11.52;2.25;;;15.70;99.90;;;;;;5030841;28;20045;-71
2022/05/28 12:43:32;;;;;;;12.98;2.72;;;15.70;99.30;;;;;;5030355;28;20059;-71
2022/05/28 12:46:18;;;;;;;7.72;2.17;;;15.70;99.90;;;;;;5030646;28;20051;-71
2022/05/28 12:48:46;;;;;;;10.40;2.55;;;16.00;99.90;;;;;;5023715;28;20048;-71
2022/05/28 12:51:25;;;;;;;7.53;2.30;;;16.50;99.90;;;;;;5030095;28;20033;-71
2022/05/28 12:53:55;;;;;;;11.95;2.67;;;17.00;99.70;;;;;;5030174;28;20037;-71
2022/05/28 12:56:28;;;;;;;11.45;2.58;;;17.40;99.90;;;;;;5024163;28;20064;-71
2022/05/28 12:59:06;;;;;;;9.35;2.25;;;17.80;99.90;;;;;;5029631;28;20044;-71
2022/05/28 13:01:34;;;;;;;9.15;2.13;;;17.90;93.60;;;;;;5026557;28;20061;-71
2022/05/28 13:04:07;;;;;;;10.60;2.20;;;18.20;96.20;;;;;;5026736;28;20046;-71
2022/05/28 13:06:45;;;;;;;8.38;2.03;;;18.40;93.40;;;;;;5029533;28;20045;-71